createdAt,value
2022-11-24T00:01:40.070Z,7.31
2022-11-24T00:04:08.517Z,7.20
2022-11-24T00:06:37.028Z,7.08
2022-11-24T00:09:06.114Z,6.95
2022-11-24T00:11:36.690Z,6.92
2022-11-24T00:14:06.479Z,6.86
2022-11-24T00:16:35.643Z,6.78
2022-11-24T00:19:05.473Z,6.70
2022-11-24T00:21:33.513Z,6.60
2022-11-24T00:24:01.246Z,6.51
2022-11-24T00:26:30.546Z,6.44
2022-11-24T00:29:01.744Z,6.37
2022-11-24T00:31:31.003Z,6.31
2022-11-24T00:34:00.465Z,6.23
2022-11-24T00:36:30.213Z,6.15
2022-11-24T00:38:59.610Z,6.09
2022-11-24T00:41:28.609Z,6.05
2022-11-24T00:43:57.042Z,6.02
2022-11-24T00:46:27.360Z,5.99
2022-11-24T00:48:55.775Z,5.95
2022-11-24T00:51:26.391Z,5.90
2022-11-24T00:53:54.201Z,5.89
2022-11-24T00:56:22.025Z,5.84
2022-11-24T00:58:50.527Z,5.82
2022-11-24T01:01:20.593Z,5.78
2022-11-24T01:03:50.311Z,5.73
2022-11-24T01:06:20.763Z,5.71
2022-11-24T01:08:49.274Z,5.66
2022-11-24T01:11:18.704Z,5.62
2022-11-24T01:13:48.525Z,5.62
2022-11-24T01:16:19.198Z,5.61
2022-11-24T01:18:47.444Z,5.58
2022-11-24T01:21:16.883Z,5.58
2022-11-24T01:23:44.634Z,5.56
2022-11-24T01:26:14.869Z,5.55
2022-11-24T01:28:47.008Z,5.55
2022-11-24T01:31:16.402Z,5.53
2022-11-24T01:33:44.397Z,5.52
2022-11-24T01:36:12.615Z,5.53
2022-11-24T01:38:41.763Z,5.53
2022-11-24T01:41:13.114Z,5.54
2022-11-24T01:43:41.087Z,5.52
2022-11-24T01:46:18.202Z,5.50
2022-11-24T01:48:49.834Z,5.51
2022-11-24T01:51:21.496Z,5.49
2022-11-24T01:53:54.266Z,5.50
2022-11-24T01:56:22.237Z,5.48
2022-11-24T01:58:53.207Z,5.49
2022-11-24T02:01:21.138Z,5.46
2022-11-24T02:03:50.184Z,5.45
2022-11-24T02:06:22.118Z,5.46
2022-11-24T02:08:56.284Z,5.44
2022-11-24T02:11:25.606Z,5.43
2022-11-24T02:13:55.242Z,5.43
2022-11-24T02:16:23.273Z,5.43
2022-11-24T02:18:51.137Z,5.43
2022-11-24T02:21:19.262Z,5.44
2022-11-24T02:23:56.463Z,5.44
2022-11-24T02:26:42.653Z,5.42
2022-11-24T02:29:11.622Z,5.41
2022-11-24T02:31:40.828Z,5.43
2022-11-24T02:34:08.631Z,5.42
2022-11-24T02:36:36.337Z,5.40
2022-11-24T02:39:04.229Z,5.39
2022-11-24T02:41:32.110Z,5.39
2022-11-24T02:44:03.211Z,5.37
2022-11-24T02:46:31.024Z,5.38
2022-11-24T02:48:58.954Z,5.38
2022-11-24T02:51:26.762Z,5.36
2022-11-24T02:53:54.519Z,5.37
2022-11-24T02:56:22.238Z,5.37
2022-11-24T02:58:49.927Z,5.40
2022-11-24T03:01:19.206Z,5.42
2022-11-24T03:03:47.152Z,5.43
2022-11-24T03:06:14.888Z,5.46
2022-11-24T03:08:42.578Z,5.45
2022-11-24T03:11:10.281Z,5.46
2022-11-24T03:13:37.964Z,5.49
2022-11-24T03:16:09.690Z,5.52
2022-11-24T03:18:38.976Z,5.55
2022-11-24T03:21:07.065Z,5.60
2022-11-24T03:23:34.790Z,5.63
2022-11-24T03:26:09.622Z,5.67
2022-11-24T03:28:37.782Z,5.68
2022-11-24T03:31:06.514Z,5.74
2022-11-24T03:33:34.590Z,5.76
2022-11-24T03:36:04.654Z,5.77
2022-11-24T03:38:32.502Z,5.78
2022-11-24T03:41:00.309Z,5.81
2022-11-24T03:43:28.040Z,5.88
2022-11-24T03:45:55.919Z,5.95
2022-11-24T03:48:23.681Z,6.00
2022-11-24T03:50:56.321Z,6.05
2022-11-24T03:53:27.103Z,6.10
2022-11-24T03:55:55.095Z,6.14
2022-11-24T03:58:23.032Z,6.15
2022-11-24T04:00:52.217Z,6.18
2022-11-24T04:03:20.450Z,6.21
2022-11-24T04:05:48.449Z,6.27
2022-11-24T04:08:16.743Z,6.33
2022-11-24T04:10:45.906Z,6.40
2022-11-24T04:13:14.495Z,6.48
2022-11-24T04:15:43.777Z,6.54
2022-11-24T04:18:13.063Z,6.58
2022-11-24T04:20:41.633Z,6.60
2022-11-24T04:23:09.756Z,6.65
2022-11-24T04:25:38.230Z,6.68
2022-11-24T04:28:07.332Z,6.73
2022-11-24T04:30:36.085Z,6.74
2022-11-24T04:33:03.989Z,6.77
2022-11-24T04:35:31.666Z,6.85
2022-11-24T04:38:03.257Z,6.87
2022-11-24T04:40:31.173Z,6.89
2022-11-24T04:42:58.994Z,6.91
2022-11-24T04:45:28.186Z,6.89
2022-11-24T04:47:55.870Z,6.84
2022-11-24T04:50:23.764Z,6.78
2022-11-24T04:52:52.481Z,6.69
2022-11-24T04:55:20.210Z,6.65
2022-11-24T04:57:47.960Z,6.58
2022-11-24T05:00:16.288Z,6.52
2022-11-24T05:02:45.391Z,6.47
2022-11-24T05:05:13.114Z,6.45
2022-11-24T05:07:40.963Z,6.39
2022-11-24T05:10:26.878Z,6.36
2022-11-24T05:12:55.509Z,6.33
2022-11-24T05:15:23.730Z,6.34
2022-11-24T05:17:53.357Z,6.33
2022-11-24T05:20:21.218Z,6.34
2022-11-24T05:22:49.021Z,6.34
2022-11-24T05:25:17.171Z,6.34
2022-11-24T05:27:45.006Z,6.34
2022-11-24T05:30:13.554Z,6.36
2022-11-24T05:32:41.322Z,6.37
2022-11-24T05:35:11.015Z,6.43
2022-11-24T05:37:38.922Z,6.50
2022-11-24T05:40:07.998Z,6.58
2022-11-24T05:42:46.791Z,6.68
2022-11-24T05:45:18.498Z,6.76
2022-11-24T05:47:47.108Z,6.84
2022-11-24T05:50:19.186Z,6.91
2022-11-24T05:52:47.356Z,6.95
2022-11-24T05:55:16.390Z,6.98
2022-11-24T05:57:44.119Z,7.04
2022-11-24T06:00:12.850Z,7.09
2022-11-24T06:02:41.215Z,7.12
2022-11-24T06:05:09.712Z,7.20
2022-11-24T06:07:39.032Z,7.23
2022-11-24T06:10:07.267Z,7.28
2022-11-24T06:12:35.063Z,7.31
2022-11-24T06:15:02.841Z,7.35
2022-11-24T06:17:30.588Z,7.37
2022-11-24T06:19:58.297Z,7.41
2022-11-24T06:22:26.013Z,7.45
2022-11-24T06:24:55.104Z,7.50
2022-11-24T06:27:23.059Z,7.54
2022-11-24T06:29:50.818Z,7.59
2022-11-24T06:32:18.647Z,7.66
2022-11-24T06:34:46.669Z,7.70
2022-11-24T06:37:14.392Z,7.77
2022-11-24T06:39:42.530Z,7.78
2022-11-24T06:42:11.649Z,7.83
2022-11-24T06:44:39.373Z,7.81
2022-11-24T06:47:07.077Z,7.73
2022-11-24T06:49:34.832Z,7.66
2022-11-24T06:52:02.685Z,7.62
2022-11-24T06:54:30.431Z,7.59
2022-11-24T06:56:58.786Z,7.58
2022-11-24T06:59:28.210Z,7.58
2022-11-24T07:01:56.085Z,7.59
2022-11-24T07:04:23.815Z,7.59
2022-11-24T07:06:51.521Z,7.60
2022-11-24T07:09:19.249Z,7.62
2022-11-24T07:11:46.953Z,7.65
2022-11-24T07:14:14.639Z,7.70
2022-11-24T07:16:43.851Z,7.74
2022-11-24T07:19:11.971Z,7.77
2022-11-24T07:21:39.709Z,7.78
2022-11-24T07:24:08.683Z,7.75
2022-11-24T07:26:37.416Z,7.73
2022-11-24T07:29:06.012Z,7.75
2022-11-24T07:31:33.884Z,7.78
2022-11-24T07:34:03.057Z,7.83
2022-11-24T07:36:30.888Z,7.87
2022-11-24T07:38:58.805Z,7.86
2022-11-24T07:41:26.825Z,7.82
2022-11-24T07:43:54.557Z,7.73
2022-11-24T07:46:22.302Z,7.64
2022-11-24T07:48:50.023Z,7.52
2022-11-24T07:51:19.064Z,7.42
2022-11-24T07:53:47.073Z,7.31
2022-11-24T07:56:14.926Z,7.24
2022-11-24T07:58:42.706Z,7.15
2022-11-24T08:01:12.855Z,7.10
2022-11-24T08:03:40.953Z,7.00
2022-11-24T08:06:24.487Z,6.98
2022-11-24T08:08:55.669Z,6.94
2022-11-24T08:11:24.236Z,6.94
2022-11-24T08:13:52.042Z,6.92
2022-11-24T08:16:21.285Z,6.93
2022-11-24T08:18:51.702Z,6.95
2022-11-24T08:21:19.929Z,7.08
2022-11-24T08:23:47.836Z,7.10
2022-11-24T08:26:19.282Z,7.11
2022-11-24T08:28:48.686Z,7.15
2022-11-24T08:31:19.546Z,7.22
2022-11-24T08:33:47.762Z,7.33
2022-11-24T08:36:17.547Z,7.38
2022-11-24T08:38:46.160Z,7.40
2022-11-24T08:41:15.735Z,7.53
2022-11-24T08:43:44.855Z,7.69
2022-11-24T08:46:17.110Z,7.82
2022-11-24T08:48:45.592Z,7.94
2022-11-24T08:51:15.781Z,8.03
2022-11-24T08:53:44.121Z,8.09
2022-11-24T08:56:13.941Z,8.18
2022-11-24T08:58:41.842Z,8.27
2022-11-24T09:01:12.796Z,8.39
2022-11-24T09:03:48.216Z,8.47
2022-11-24T09:06:18.212Z,8.48
2022-11-24T09:08:45.985Z,8.69
2022-11-24T09:11:15.545Z,8.82
2022-11-24T09:13:43.848Z,8.89
2022-11-24T09:16:14.788Z,8.94
2022-11-24T09:18:42.950Z,9.02
2022-11-24T09:21:12.835Z,9.14
2022-11-24T09:23:41.030Z,9.25
2022-11-24T09:26:10.847Z,9.27
2022-11-24T09:28:38.557Z,9.34
2022-11-24T09:31:08.776Z,9.47
2022-11-24T09:33:38.520Z,9.51
2022-11-24T09:36:07.256Z,9.60
2022-11-24T09:38:35.284Z,9.72
2022-11-24T09:41:33.623Z,9.77
2022-11-24T09:44:08.459Z,9.70
2022-11-24T09:46:43.459Z,9.67
2022-11-24T09:49:17.987Z,9.71
2022-11-24T09:51:52.307Z,9.67
2022-11-24T09:54:25.093Z,9.71
2022-11-24T09:56:53.706Z,9.70
2022-11-24T09:59:23.460Z,9.69
2022-11-24T10:01:55.763Z,9.66
2022-11-24T10:04:35.194Z,9.64
2022-11-24T10:07:14.324Z,9.62
2022-11-24T10:09:54.355Z,9.59
2022-11-24T10:12:35.351Z,9.58
2022-11-24T10:15:37.429Z,9.53
2022-11-24T10:18:34.891Z,9.48
2022-11-24T10:21:15.807Z,9.44
2022-11-24T10:23:57.221Z,9.38
2022-11-24T10:26:35.195Z,9.35
2022-11-24T10:29:09.824Z,9.30
2022-11-24T10:31:41.726Z,9.31
2022-11-24T10:34:15.916Z,9.29
2022-11-24T10:36:51.652Z,9.26
2022-11-24T10:39:25.509Z,9.30
2022-11-24T10:42:00.270Z,9.30
2022-11-24T10:44:27.967Z,9.39
2022-11-24T10:46:55.896Z,9.51
2022-11-24T10:49:28.018Z,9.54
2022-11-24T10:52:07.635Z,9.56
2022-11-24T10:54:36.812Z,9.67
2022-11-24T10:57:04.539Z,9.82
2022-11-24T10:59:38.378Z,9.86
2022-11-24T11:02:28.979Z,9.96
2022-11-24T11:04:56.821Z,10.04
2022-11-24T11:07:27.348Z,10.09
2022-11-24T11:10:19.479Z,10.19
2022-11-24T11:12:47.424Z,10.26
2022-11-24T11:15:24.440Z,10.28
2022-11-24T11:17:57.242Z,10.25
2022-11-24T11:20:29.972Z,10.26
2022-11-24T11:23:01.389Z,10.19
2022-11-24T11:25:33.476Z,10.15
2022-11-24T11:28:22.784Z,10.08
2022-11-24T11:34:07.217Z,9.99
2022-11-24T11:36:41.997Z,10.04
2022-11-24T11:39:21.272Z,10.19
2022-11-24T11:41:52.822Z,10.32
2022-11-24T11:44:31.121Z,10.32
2022-11-24T11:47:00.982Z,10.30
2022-11-24T11:49:28.774Z,10.18
2022-11-24T11:52:30.371Z,10.07
2022-11-24T11:55:29.366Z,9.98
2022-11-24T11:58:08.293Z,10.00
2022-11-24T12:00:39.836Z,10.02
2022-11-24T12:03:39.773Z,10.09
2022-11-24T12:06:21.182Z,10.06
2022-11-24T12:12:01.767Z,10.36
2022-11-24T12:14:40.247Z,10.39
2022-11-24T12:17:20.594Z,10.30
2022-11-24T12:20:07.388Z,10.35
2022-11-24T12:22:43.615Z,10.23
2022-11-24T12:25:26.452Z,10.13
2022-11-24T12:28:06.959Z,10.07
2022-11-24T12:30:42.939Z,10.11
2022-11-24T12:33:30.448Z,9.99
2022-11-24T12:36:04.400Z,9.97
2022-11-24T12:38:47.830Z,10.00
2022-11-24T12:41:42.124Z,10.04
2022-11-24T12:44:30.525Z,10.05
2022-11-24T12:47:10.974Z,10.01
2022-11-24T12:49:46.945Z,10.03
2022-11-24T12:52:22.807Z,10.07
2022-11-24T12:54:50.566Z,10.12
2022-11-24T12:57:23.498Z,10.15
2022-11-24T12:59:58.883Z,10.16
2022-11-24T13:02:34.757Z,10.17
2022-11-24T13:05:15.083Z,10.18
2022-11-24T13:07:47.398Z,10.20
2022-11-24T13:13:21.130Z,10.24
2022-11-24T13:19:10.126Z,10.29
2022-11-24T13:22:00.982Z,10.28
2022-11-24T13:24:31.648Z,10.33
2022-11-24T13:27:27.109Z,10.34
2022-11-24T13:29:55.778Z,10.31
2022-11-24T13:33:00.193Z,10.36
2022-11-24T13:35:28.219Z,10.40
2022-11-24T13:37:56.002Z,10.42
2022-11-24T13:40:49.831Z,10.41
2022-11-24T13:43:27.730Z,10.38
2022-11-24T13:45:55.579Z,10.29
2022-11-24T13:49:00.917Z,10.21
2022-11-24T13:51:28.939Z,10.05
2022-11-24T13:54:00.752Z,9.88
2022-11-24T13:56:31.413Z,9.77
2022-11-24T13:59:15.591Z,9.61
2022-11-24T14:01:44.741Z,9.52
2022-11-24T14:04:35.022Z,9.47
2022-11-24T14:07:08.161Z,9.43
2022-11-24T14:09:41.801Z,9.43
2022-11-24T14:12:15.137Z,9.46
2022-11-24T14:14:44.333Z,9.43
2022-11-24T14:17:18.824Z,9.32
2022-11-24T14:19:49.670Z,9.24
2022-11-24T14:22:19.990Z,9.14
2022-11-24T14:24:53.687Z,9.02
2022-11-24T14:27:27.065Z,8.90
2022-11-24T14:29:56.425Z,8.78
2022-11-24T14:32:24.643Z,8.64
2022-11-24T14:34:54.637Z,8.51
2022-11-24T14:37:22.860Z,8.44
2022-11-24T14:39:50.758Z,8.43
2022-11-24T14:42:21.315Z,8.48
2022-11-24T14:44:52.804Z,8.52
2022-11-24T14:47:31.228Z,8.56
2022-11-24T14:50:09.800Z,8.54
2022-11-24T14:52:44.471Z,8.57
2022-11-24T14:55:25.465Z,8.59
2022-11-24T14:57:53.395Z,8.63
2022-11-24T15:00:28.387Z,8.65
2022-11-24T15:03:09.352Z,8.73
2022-11-24T15:05:56.913Z,8.76
2022-11-24T15:08:26.317Z,8.80
2022-11-24T15:10:59.592Z,8.81
2022-11-24T15:13:27.589Z,8.78
2022-11-24T15:16:02.358Z,8.71
2022-11-24T15:18:37.573Z,8.64
2022-11-24T15:21:07.299Z,8.55
2022-11-24T15:23:36.252Z,8.37
2022-11-24T15:26:30.762Z,8.42
2022-11-24T15:28:59.190Z,8.37
2022-11-24T15:31:27.093Z,8.33
2022-11-24T15:33:54.968Z,8.32
2022-11-24T15:36:24.127Z,8.33
2022-11-24T15:38:52.234Z,8.37
2022-11-24T15:41:22.650Z,8.42
2022-11-24T15:43:50.432Z,8.47
2022-11-24T15:46:18.197Z,8.51
2022-11-24T15:48:46.157Z,8.50
2022-11-24T15:51:15.341Z,8.40
2022-11-24T15:53:47.523Z,8.27
2022-11-24T15:56:20.128Z,8.08
2022-11-24T15:58:48.445Z,7.95
2022-11-24T16:01:16.247Z,7.78
2022-11-24T16:03:47.575Z,7.61
2022-11-24T16:06:24.049Z,7.43
2022-11-24T16:08:54.790Z,7.25
2022-11-24T16:11:22.736Z,7.10
2022-11-24T16:13:53.234Z,6.96
2022-11-24T16:16:22.969Z,6.82
2022-11-24T16:18:51.008Z,6.70
2022-11-24T16:21:18.747Z,6.57
2022-11-24T16:23:47.775Z,6.48
2022-11-24T16:26:16.952Z,6.38
2022-11-24T16:28:45.767Z,6.29
2022-11-24T16:31:15.632Z,6.18
2022-11-24T16:33:44.689Z,6.08
2022-11-24T16:36:12.952Z,6.02
2022-11-24T16:38:40.688Z,5.99
2022-11-24T16:41:10.436Z,5.99
2022-11-24T16:43:39.870Z,5.97
2022-11-24T16:46:18.769Z,6.01
2022-11-24T16:48:47.407Z,6.06
2022-11-24T16:51:15.804Z,6.14
2022-11-24T16:53:44.308Z,6.15
2022-11-24T16:56:12.507Z,6.13
2022-11-24T16:58:42.464Z,6.09
2022-11-24T17:01:12.468Z,6.03
2022-11-24T17:03:40.954Z,6.02
2022-11-24T17:06:11.487Z,5.98
2022-11-24T17:08:41.383Z,5.92
2022-11-24T17:11:09.786Z,5.85
2022-11-24T17:13:38.017Z,5.80
2022-11-24T17:16:09.036Z,5.74
2022-11-24T17:18:38.483Z,5.70
2022-11-24T17:21:09.686Z,5.67
2022-11-24T17:23:38.697Z,5.65
2022-11-24T17:26:07.993Z,5.63
2022-11-24T17:28:36.026Z,5.57
2022-11-24T17:31:08.864Z,5.54
2022-11-24T17:33:37.064Z,5.49
2022-11-24T17:36:06.038Z,5.41
2022-11-24T17:38:35.109Z,5.38
2022-11-24T17:41:03.131Z,5.34
2022-11-24T17:43:30.903Z,5.28
2022-11-24T17:46:00.787Z,5.26
2022-11-24T17:48:30.770Z,5.21
2022-11-24T17:51:03.226Z,5.21
2022-11-24T17:53:31.614Z,5.17
2022-11-24T17:56:02.531Z,5.16
2022-11-24T17:58:31.449Z,5.18
2022-11-24T18:00:59.349Z,5.18
2022-11-24T18:03:28.794Z,5.17
2022-11-24T18:05:57.979Z,5.16
2022-11-24T18:08:25.808Z,5.19
2022-11-24T18:10:53.495Z,5.18
2022-11-24T18:13:41.010Z,5.15
2022-11-24T18:16:11.494Z,5.06
2022-11-24T18:18:40.441Z,5.08
2022-11-24T18:21:14.109Z,5.03
2022-11-24T18:23:43.676Z,5.01
2022-11-24T18:26:14.778Z,4.96
2022-11-24T18:28:43.449Z,4.93
2022-11-24T18:31:13.764Z,4.90
2022-11-24T18:33:43.225Z,4.86
2022-11-24T18:36:15.225Z,4.83
2022-11-24T18:38:43.668Z,4.80
2022-11-24T18:41:12.786Z,4.76
2022-11-24T18:43:40.895Z,4.74
2022-11-24T18:46:11.496Z,4.68
2022-11-24T18:48:39.370Z,4.69
2022-11-24T18:51:08.380Z,4.65
2022-11-24T18:53:37.506Z,4.64
2022-11-24T18:56:06.635Z,4.62
2022-11-24T18:58:36.358Z,4.59
2022-11-24T19:01:08.674Z,4.55
2022-11-24T19:03:42.362Z,4.51
2022-11-24T19:06:15.724Z,4.47
2022-11-24T19:08:45.338Z,4.50
2022-11-24T19:11:18.462Z,4.48
2022-11-24T19:13:47.551Z,4.48
2022-11-24T19:16:15.640Z,4.49
2022-11-24T19:18:46.488Z,4.49
2022-11-24T19:21:18.212Z,4.50
2022-11-24T19:23:47.442Z,4.54
2022-11-24T19:26:16.244Z,4.57
2022-11-24T19:28:43.939Z,4.58
2022-11-24T19:31:13.658Z,4.63
2022-11-24T19:33:41.749Z,4.65
2022-11-24T19:36:12.754Z,4.67
2022-11-24T19:38:41.888Z,4.69
2022-11-24T19:41:13.065Z,4.69
2022-11-24T19:43:41.723Z,4.73
2022-11-24T19:46:10.948Z,4.76
2022-11-24T19:48:40.173Z,4.77
2022-11-24T19:51:09.689Z,4.79
2022-11-24T19:53:37.934Z,4.80
2022-11-24T19:56:06.840Z,4.79
2022-11-24T19:58:37.486Z,4.82
2022-11-24T20:01:10.048Z,4.85
2022-11-24T20:03:39.082Z,4.90
2022-11-24T20:06:07.676Z,4.90
2022-11-24T20:08:36.897Z,4.91
2022-11-24T20:11:05.681Z,4.94
2022-11-24T20:13:37.242Z,4.97
2022-11-24T20:16:06.103Z,5.01
2022-11-24T20:18:38.912Z,5.06
2022-11-24T20:21:10.905Z,5.10
2022-11-24T20:23:39.524Z,5.12
2022-11-24T20:26:09.218Z,5.15
2022-11-24T20:28:38.671Z,5.16
2022-11-24T20:31:08.469Z,5.18
2022-11-24T20:33:37.287Z,5.15
2022-11-24T20:36:06.700Z,5.16
2022-11-24T20:38:35.429Z,5.16
2022-11-24T20:41:09.053Z,5.14
2022-11-24T20:43:39.145Z,5.11
2022-11-24T20:46:09.612Z,5.09
2022-11-24T20:48:37.912Z,5.06
2022-11-24T20:51:06.669Z,5.05
2022-11-24T20:53:35.015Z,5.02
2022-11-24T20:56:06.097Z,4.99
2022-11-24T20:58:35.089Z,5.01
2022-11-24T21:01:09.894Z,4.93
2022-11-24T21:03:43.007Z,4.96
2022-11-24T21:06:12.662Z,4.93
2022-11-24T21:08:42.273Z,4.89
2022-11-24T21:11:11.457Z,4.86
2022-11-24T21:13:40.871Z,4.84
2022-11-24T21:16:18.188Z,4.81
2022-11-24T21:18:47.249Z,4.76
2022-11-24T21:21:15.779Z,4.74
2022-11-24T21:23:44.986Z,4.73
2022-11-24T21:26:16.829Z,4.67
2022-11-24T21:28:46.422Z,4.64
2022-11-24T21:31:18.757Z,4.59
2022-11-24T21:33:48.144Z,4.58
2022-11-24T21:36:17.892Z,4.54
2022-11-24T21:38:51.142Z,4.55
2022-11-24T21:41:19.325Z,4.55
2022-11-24T21:43:47.217Z,4.52
2022-11-24T21:46:15.313Z,4.51
2022-11-24T21:48:44.926Z,4.48
2022-11-24T21:51:15.547Z,4.51
2022-11-24T21:53:44.436Z,4.49
2022-11-24T21:56:13.672Z,4.51
2022-11-24T21:58:47.095Z,4.51
2022-11-24T22:01:16.250Z,4.49
2022-11-24T22:03:46.042Z,4.45
2022-11-24T22:06:14.177Z,4.43
2022-11-24T22:08:41.862Z,4.40
2022-11-24T22:11:12.993Z,4.36
2022-11-24T22:13:41.373Z,4.30
2022-11-24T22:16:11.332Z,4.27
2022-11-24T22:18:40.825Z,4.24
2022-11-24T22:21:13.279Z,4.13
2022-11-24T22:23:41.339Z,4.18
2022-11-24T22:26:12.253Z,4.18
2022-11-24T22:28:40.376Z,4.14
2022-11-24T22:31:09.956Z,4.13
2022-11-24T22:33:37.745Z,4.15
2022-11-24T22:36:06.326Z,4.14
2022-11-24T22:38:35.518Z,4.16
2022-11-24T22:41:04.592Z,4.16
2022-11-24T22:43:33.628Z,4.15
2022-11-24T22:46:05.790Z,4.15
2022-11-24T22:48:33.727Z,4.16
2022-11-24T22:51:03.188Z,4.14
2022-11-24T22:53:31.340Z,4.14
2022-11-24T22:56:03.688Z,4.15
2022-11-24T22:58:32.016Z,4.14
2022-11-24T23:01:06.035Z,4.14
2022-11-24T23:03:34.438Z,4.10
2022-11-24T23:06:02.700Z,4.15
2022-11-24T23:08:32.846Z,4.16
2022-11-24T23:11:03.017Z,4.12
2022-11-24T23:13:30.930Z,4.10
2022-11-24T23:16:02.611Z,4.05
2022-11-24T23:18:30.776Z,4.01
2022-11-24T23:21:04.449Z,3.99
2022-11-24T23:23:32.195Z,3.95
2022-11-24T23:26:02.287Z,3.88
2022-11-24T23:28:30.038Z,3.86
2022-11-24T23:31:01.651Z,3.84
2022-11-24T23:33:29.391Z,3.78
2022-11-24T23:35:57.147Z,3.83
2022-11-24T23:38:28.548Z,3.81
2022-11-24T23:40:56.360Z,3.86
2022-11-24T23:43:25.455Z,3.91
2022-11-24T23:45:53.285Z,3.98
2022-11-24T23:48:21.167Z,4.04
2022-11-24T23:50:48.936Z,4.08
2022-11-24T23:53:16.681Z,4.14
2022-11-24T23:55:44.809Z,4.17
2022-11-24T23:58:12.834Z,4.20
